createdAt,value
2022-11-26T00:01:47.317Z,85.67
2022-11-26T00:04:16.932Z,85.70
2022-11-26T00:06:46.740Z,85.70
2022-11-26T00:09:19.639Z,86.03
2022-11-26T00:11:49.085Z,86.48
2022-11-26T00:14:19.197Z,85.73
2022-11-26T00:16:49.312Z,86.09
2022-11-26T00:19:19.047Z,85.68
2022-11-26T00:21:49.665Z,85.68
2022-11-26T00:24:29.954Z,86.10
2022-11-26T00:27:01.321Z,85.67
2022-11-26T00:29:31.139Z,85.47
2022-11-26T00:32:01.017Z,85.97
2022-11-26T00:34:30.803Z,85.61
2022-11-26T00:37:00.569Z,85.81
2022-11-26T00:39:30.761Z,86.02
2022-11-26T00:42:02.239Z,85.44
2022-11-26T00:44:32.729Z,86.24
2022-11-26T00:47:02.491Z,85.97
2022-11-26T00:49:32.545Z,85.58
2022-11-26T00:52:02.526Z,85.91
2022-11-26T00:54:32.829Z,85.46
2022-11-26T00:57:02.577Z,85.75
2022-11-26T00:59:32.642Z,86.81
2022-11-26T01:02:02.572Z,86.05
2022-11-26T01:04:33.296Z,85.61
2022-11-26T01:07:03.133Z,86.62
2022-11-26T01:09:33.049Z,85.22
2022-11-26T01:12:02.770Z,85.22
2022-11-26T01:14:32.599Z,85.50
2022-11-26T01:17:02.731Z,85.86
2022-11-26T01:19:32.529Z,85.34
2022-11-26T01:22:02.349Z,85.32
2022-11-26T01:24:32.169Z,86.01
2022-11-26T01:27:01.904Z,86.13
2022-11-26T01:29:31.683Z,85.50
2022-11-26T01:32:01.574Z,85.69
2022-11-26T01:34:31.842Z,86.01
2022-11-26T01:37:01.661Z,85.82
2022-11-26T01:39:31.183Z,85.80
2022-11-26T01:42:23.242Z,85.79
2022-11-26T01:44:53.239Z,85.75
2022-11-26T01:47:28.740Z,86.29
2022-11-26T01:50:35.850Z,86.02
2022-11-26T01:53:08.972Z,86.61
2022-11-26T01:55:41.648Z,85.78
2022-11-26T01:58:14.988Z,85.72
2022-11-26T02:00:45.843Z,85.47
2022-11-26T02:03:16.310Z,85.38
2022-11-26T02:05:49.167Z,85.39
2022-11-26T02:08:19.774Z,85.78
2022-11-26T02:10:51.142Z,86.00
2022-11-26T02:13:21.760Z,86.00
2022-11-26T02:16:03.181Z,85.97
2022-11-26T02:18:36.175Z,86.17
2022-11-26T02:21:09.025Z,85.94
2022-11-26T02:24:08.484Z,85.70
2022-11-26T02:27:06.855Z,85.84
2022-11-26T02:29:51.302Z,86.33
2022-11-26T02:32:44.999Z,85.99
2022-11-26T02:35:23.685Z,86.03
2022-11-26T02:38:02.364Z,86.03
2022-11-26T02:40:31.904Z,85.47
2022-11-26T02:43:01.882Z,85.80
2022-11-26T02:45:37.604Z,85.94
2022-11-26T02:48:12.825Z,85.85
2022-11-26T02:54:08.714Z,85.18
2022-11-26T02:56:40.723Z,86.08
2022-11-26T02:59:11.872Z,85.88
2022-11-26T03:01:47.653Z,85.48
2022-11-26T03:04:20.218Z,85.48
2022-11-26T03:06:50.918Z,85.96
2022-11-26T03:09:23.687Z,85.96
2022-11-26T03:11:53.897Z,86.06
2022-11-26T03:14:23.327Z,85.94
2022-11-26T03:16:53.125Z,86.33
2022-11-26T03:19:22.966Z,86.78
2022-11-26T03:21:52.713Z,86.84
2022-11-26T03:24:22.591Z,87.12
2022-11-26T03:26:52.632Z,86.63
2022-11-26T03:29:22.685Z,86.81
2022-11-26T03:31:52.635Z,86.37
2022-11-26T03:34:22.206Z,86.56
2022-11-26T03:36:52.558Z,86.84
2022-11-26T03:39:22.621Z,86.84
2022-11-26T03:41:52.404Z,86.42
2022-11-26T03:44:22.216Z,86.38
2022-11-26T03:46:51.947Z,86.83
2022-11-26T03:49:21.831Z,86.83
2022-11-26T03:51:51.954Z,86.62
2022-11-26T03:54:21.725Z,86.22
2022-11-26T03:56:51.982Z,86.81
2022-11-26T03:59:22.025Z,86.09
2022-11-26T04:01:52.123Z,86.09
2022-11-26T04:04:21.951Z,86.38
2022-11-26T04:06:51.691Z,86.09
2022-11-26T04:09:21.782Z,86.23
2022-11-26T04:11:51.877Z,86.95
2022-11-26T04:14:21.485Z,86.90
2022-11-26T04:16:51.456Z,86.90
2022-11-26T04:19:21.274Z,86.27
2022-11-26T04:21:51.073Z,86.90
2022-11-26T04:24:20.853Z,86.17
2022-11-26T04:26:50.665Z,86.17
2022-11-26T04:29:20.155Z,86.34
2022-11-26T04:31:49.944Z,86.12
2022-11-26T04:34:19.663Z,86.02
2022-11-26T04:36:49.471Z,85.98
2022-11-26T04:39:19.233Z,86.06
2022-11-26T04:41:49.846Z,86.73
2022-11-26T04:44:19.617Z,86.09
2022-11-26T04:46:49.666Z,85.94
2022-11-26T04:49:19.164Z,86.04
2022-11-26T04:51:48.954Z,86.28
2022-11-26T04:54:18.692Z,85.87
2022-11-26T04:56:49.773Z,85.92
2022-11-26T04:59:19.505Z,86.20
2022-11-26T05:01:49.248Z,85.99
2022-11-26T05:04:20.165Z,86.25
2022-11-26T05:06:49.916Z,86.26
2022-11-26T05:09:19.657Z,86.44
2022-11-26T05:11:49.511Z,86.15
2022-11-26T05:14:19.276Z,86.40
2022-11-26T05:16:49.104Z,86.27
2022-11-26T05:19:18.974Z,86.23
2022-11-26T05:21:48.736Z,86.36
2022-11-26T05:24:18.187Z,86.03
2022-11-26T05:26:52.364Z,86.31
2022-11-26T05:29:19.754Z,86.30
2022-11-26T05:31:49.642Z,86.19
2022-11-26T05:34:19.654Z,87.01
2022-11-26T05:36:49.421Z,86.70
2022-11-26T05:39:19.182Z,86.56
2022-11-26T05:41:49.202Z,86.45
2022-11-26T05:44:18.932Z,86.07
2022-11-26T05:46:48.709Z,86.10
2022-11-26T05:49:18.813Z,86.61
2022-11-26T05:51:48.794Z,86.46
2022-11-26T05:54:18.730Z,86.51
2022-11-26T05:56:48.214Z,85.95
2022-11-26T05:59:17.965Z,86.23
2022-11-26T06:01:48.045Z,86.65
2022-11-26T06:04:17.657Z,86.61
2022-11-26T06:06:47.855Z,86.67
2022-11-26T06:09:17.637Z,86.51
2022-11-26T06:11:47.477Z,86.76
2022-11-26T06:14:17.886Z,86.92
2022-11-26T06:16:47.856Z,86.79
2022-11-26T06:19:17.776Z,86.80
2022-11-26T06:21:47.520Z,86.53
2022-11-26T06:24:17.221Z,86.15
2022-11-26T06:26:46.970Z,85.90
2022-11-26T06:29:16.704Z,86.21
2022-11-26T06:31:46.911Z,86.43
2022-11-26T06:34:17.667Z,86.50
2022-11-26T06:36:47.477Z,86.57
2022-11-26T06:39:17.282Z,86.77
2022-11-26T06:41:47.005Z,86.60
2022-11-26T06:44:16.838Z,86.60
2022-11-26T06:46:46.356Z,86.96
2022-11-26T06:49:16.191Z,86.99
2022-11-26T06:51:45.930Z,86.89
2022-11-26T06:54:15.758Z,87.30
2022-11-26T06:56:45.571Z,87.02
2022-11-26T06:59:15.635Z,86.79
2022-11-26T07:01:45.492Z,87.73
2022-11-26T07:04:15.504Z,88.03
2022-11-26T07:06:46.592Z,88.03
2022-11-26T07:09:16.629Z,87.47
2022-11-26T07:11:46.408Z,87.44
2022-11-26T07:14:16.367Z,87.54
2022-11-26T07:16:46.091Z,87.71
2022-11-26T07:19:16.321Z,87.60
2022-11-26T07:21:46.009Z,87.58
2022-11-26T07:24:15.993Z,87.76
2022-11-26T07:26:45.783Z,87.61
2022-11-26T07:29:16.102Z,87.57
2022-11-26T07:31:45.921Z,88.06
2022-11-26T07:34:15.663Z,88.06
2022-11-26T07:36:45.407Z,88.35
2022-11-26T07:39:15.177Z,87.84
2022-11-26T07:41:45.335Z,87.64
2022-11-26T07:44:15.933Z,87.66
2022-11-26T07:46:45.635Z,87.77
2022-11-26T07:49:15.074Z,88.08
2022-11-26T07:51:44.894Z,88.65
2022-11-26T07:54:14.638Z,88.52
2022-11-26T07:56:44.168Z,88.50
2022-11-26T07:59:13.918Z,88.63
2022-11-26T08:01:43.723Z,88.67
2022-11-26T08:04:13.530Z,88.80
2022-11-26T08:06:43.583Z,89.41
2022-11-26T08:09:13.033Z,88.65
2022-11-26T08:11:43.955Z,88.67
2022-11-26T08:14:14.693Z,88.74
2022-11-26T08:16:44.367Z,88.87
2022-11-26T08:19:14.911Z,88.44
2022-11-26T08:21:44.967Z,88.53
2022-11-26T08:24:17.116Z,88.69
2022-11-26T08:26:47.426Z,87.90
2022-11-26T08:29:17.504Z,88.19
2022-11-26T08:31:48.813Z,88.00
2022-11-26T08:34:19.425Z,87.81
2022-11-26T08:36:49.479Z,87.77
2022-11-26T08:39:19.891Z,87.63
2022-11-26T08:41:52.366Z,88.00
2022-11-26T08:44:21.548Z,87.88
2022-11-26T08:46:51.502Z,87.79
2022-11-26T08:49:21.545Z,87.32
2022-11-26T08:51:51.321Z,86.99
2022-11-26T08:54:21.010Z,87.09
2022-11-26T08:56:50.790Z,87.35
2022-11-26T08:59:22.272Z,87.02
2022-11-26T09:01:52.424Z,87.44
2022-11-26T09:04:22.223Z,86.49
2022-11-26T09:06:52.041Z,86.60
2022-11-26T09:09:21.835Z,86.11
2022-11-26T09:11:59.912Z,87.10
2022-11-26T09:14:31.975Z,87.25
2022-11-26T09:17:02.504Z,87.25
2022-11-26T09:19:32.385Z,87.42
2022-11-26T09:22:02.433Z,87.55
2022-11-26T09:24:32.209Z,87.46
2022-11-26T09:27:07.472Z,87.49
2022-11-26T09:29:33.179Z,87.49
2022-11-26T09:34:34.618Z,87.56
2022-11-26T09:37:04.661Z,87.33
2022-11-26T09:39:34.524Z,87.06
2022-11-26T09:42:30.531Z,86.66
2022-11-26T09:45:14.987Z,86.66
2022-11-26T09:47:47.894Z,86.95
2022-11-26T09:50:29.506Z,86.39
2022-11-26T09:53:23.530Z,87.00
2022-11-26T09:55:56.132Z,86.70
2022-11-26T09:58:31.394Z,86.88
2022-11-26T10:01:03.210Z,87.40
2022-11-26T10:03:35.185Z,86.99
2022-11-26T10:06:12.352Z,87.85
2022-11-26T10:09:11.988Z,87.85
2022-11-26T10:11:59.812Z,87.13
2022-11-26T10:14:48.912Z,86.71
2022-11-26T10:17:24.479Z,86.28
2022-11-26T10:20:03.029Z,86.08
2022-11-26T10:22:38.832Z,85.92
2022-11-26T10:25:09.114Z,85.47
2022-11-26T10:27:39.591Z,85.76
2022-11-26T10:30:20.934Z,85.48
2022-11-26T10:32:52.412Z,85.82
2022-11-26T10:35:24.796Z,85.76
2022-11-26T10:37:57.199Z,86.28
2022-11-26T10:40:29.940Z,86.15
2022-11-26T10:43:12.474Z,85.70
2022-11-26T10:45:53.926Z,85.52
2022-11-26T10:48:29.056Z,86.38
2022-11-26T10:51:23.702Z,86.31
2022-11-26T10:53:59.648Z,85.85
2022-11-26T10:56:44.721Z,85.27
2022-11-26T10:59:29.203Z,85.52
2022-11-26T11:02:07.540Z,85.75
2022-11-26T11:04:40.927Z,84.44
2022-11-26T11:07:16.482Z,84.59
2022-11-26T11:09:46.836Z,84.58
2022-11-26T11:12:24.582Z,84.47
2022-11-26T11:14:55.011Z,84.47
2022-11-26T11:17:33.947Z,84.50
2022-11-26T11:20:19.668Z,84.19
2022-11-26T11:22:54.971Z,83.74
2022-11-26T11:25:28.206Z,83.29
2022-11-26T11:28:08.963Z,83.14
2022-11-26T11:30:37.645Z,82.60
2022-11-26T11:33:13.891Z,81.72
2022-11-26T11:35:43.431Z,81.46
2022-11-26T11:38:25.017Z,80.67
2022-11-26T11:40:55.211Z,81.56
2022-11-26T11:43:26.868Z,81.60
2022-11-26T11:46:14.469Z,80.49
2022-11-26T11:48:56.192Z,80.92
2022-11-26T11:51:34.412Z,80.14
2022-11-26T11:54:23.149Z,79.70
2022-11-26T11:56:58.475Z,79.61
2022-11-26T11:59:41.387Z,79.48
2022-11-26T12:02:20.537Z,78.49
2022-11-26T12:04:56.442Z,77.98
2022-11-26T12:07:32.385Z,78.08
2022-11-26T12:10:08.071Z,78.25
2022-11-26T12:12:45.003Z,77.81
2022-11-26T12:15:40.493Z,76.70
2022-11-26T12:18:31.839Z,75.27
2022-11-26T12:21:08.917Z,75.74
2022-11-26T12:24:07.126Z,76.49
2022-11-26T12:26:46.930Z,76.79
2022-11-26T12:29:45.003Z,75.68
2022-11-26T12:32:18.765Z,74.46
2022-11-26T12:34:57.214Z,73.91
2022-11-26T12:37:30.009Z,74.46
2022-11-26T12:40:17.700Z,74.55
2022-11-26T12:42:59.378Z,75.84
2022-11-26T12:45:51.476Z,74.41
2022-11-26T12:48:27.022Z,75.73
2022-11-26T12:51:14.391Z,75.60
2022-11-26T12:54:06.683Z,75.99
2022-11-26T12:56:47.916Z,76.76
2022-11-26T12:59:26.426Z,76.58
2022-11-26T13:01:57.324Z,76.87
2022-11-26T13:04:37.715Z,76.29
2022-11-26T13:07:25.846Z,76.22
2022-11-26T13:10:18.384Z,76.11
2022-11-26T13:13:02.465Z,77.13
2022-11-26T13:15:37.655Z,77.41
2022-11-26T13:18:21.519Z,77.20
2022-11-26T13:21:16.549Z,78.23
2022-11-26T13:24:21.147Z,77.69
2022-11-26T13:26:59.993Z,77.56
2022-11-26T13:29:33.106Z,78.26
2022-11-26T13:32:13.230Z,77.85
2022-11-26T13:34:46.157Z,78.42
2022-11-26T13:37:34.021Z,78.15
2022-11-26T13:40:26.792Z,78.15
2022-11-26T13:43:05.231Z,77.78
2022-11-26T13:45:46.720Z,78.08
2022-11-26T13:48:22.059Z,77.90
2022-11-26T13:51:03.169Z,77.93
2022-11-26T13:53:38.750Z,77.93
2022-11-26T13:56:11.718Z,77.54
2022-11-26T13:58:50.383Z,77.33
2022-11-26T14:01:37.005Z,77.65
2022-11-26T14:04:13.742Z,77.44
2022-11-26T14:07:08.718Z,77.62
2022-11-26T14:09:47.429Z,77.75
2022-11-26T14:12:18.591Z,77.81
2022-11-26T14:14:50.435Z,76.66
2022-11-26T14:17:33.912Z,76.81
2022-11-26T14:20:00.743Z,77.31
2022-11-26T14:22:33.716Z,77.13
2022-11-26T14:25:09.343Z,77.35
2022-11-26T14:27:42.475Z,77.23
2022-11-26T14:30:20.350Z,77.29
2022-11-26T14:33:08.297Z,77.20
2022-11-26T14:35:40.530Z,77.12
2022-11-26T14:38:30.530Z,76.52
2022-11-26T14:41:01.835Z,77.00
2022-11-26T14:43:31.642Z,77.05
2022-11-26T14:46:15.945Z,76.72
2022-11-26T14:48:50.917Z,76.72
2022-11-26T14:51:26.250Z,76.75
2022-11-26T14:53:57.079Z,76.56
2022-11-26T14:56:27.191Z,76.46
2022-11-26T14:59:00.002Z,77.07
2022-11-26T15:01:31.837Z,76.61
2022-11-26T15:04:04.596Z,77.36
2022-11-26T15:06:38.811Z,77.81
2022-11-26T15:09:21.662Z,78.07
2022-11-26T15:11:54.525Z,78.40
2022-11-26T15:14:39.626Z,78.39
2022-11-26T15:17:18.422Z,78.31
2022-11-26T15:19:50.439Z,78.58
2022-11-26T15:22:42.109Z,78.58
2022-11-26T15:25:23.534Z,79.11
2022-11-26T15:28:05.038Z,79.20
2022-11-26T15:30:38.974Z,79.12
2022-11-26T15:33:14.800Z,79.28
2022-11-26T15:35:44.437Z,79.10
2022-11-26T15:38:17.293Z,78.68
2022-11-26T15:40:55.535Z,78.92
2022-11-26T15:43:31.313Z,78.87
2022-11-26T15:46:09.283Z,79.01
2022-11-26T15:48:52.774Z,79.61
2022-11-26T15:51:28.420Z,80.17
2022-11-26T15:53:58.089Z,80.43
2022-11-26T15:56:33.786Z,80.77
2022-11-26T15:59:07.072Z,80.94
2022-11-26T16:01:38.224Z,81.02
2022-11-26T16:04:12.425Z,81.02
2022-11-26T16:06:42.610Z,81.17
2022-11-26T16:09:18.138Z,80.89
2022-11-26T16:12:00.124Z,81.33
2022-11-26T16:14:38.582Z,82.01
2022-11-26T16:17:17.142Z,81.53
2022-11-26T16:19:55.896Z,81.79
2022-11-26T16:22:28.943Z,82.39
2022-11-26T16:25:07.816Z,82.45
2022-11-26T16:27:37.906Z,82.76
2022-11-26T16:30:17.823Z,82.61
2022-11-26T16:32:47.577Z,82.53
2022-11-26T16:35:44.125Z,82.86
2022-11-26T16:37:48.530Z,83.18
2022-11-26T16:40:19.250Z,82.93
2022-11-26T16:42:49.537Z,82.59
2022-11-26T16:45:20.643Z,83.43
2022-11-26T16:47:56.072Z,83.67
2022-11-26T16:50:27.742Z,83.49
2022-11-26T16:52:57.632Z,83.23
2022-11-26T16:55:28.029Z,83.95
2022-11-26T16:58:01.312Z,83.56
2022-11-26T17:00:30.720Z,83.51
2022-11-26T17:03:00.941Z,82.91
2022-11-26T17:05:30.782Z,83.39
2022-11-26T17:08:02.358Z,82.89
2022-11-26T17:10:32.150Z,83.31
2022-11-26T17:13:01.842Z,83.09
2022-11-26T17:15:31.324Z,82.19
2022-11-26T17:18:06.936Z,82.81
2022-11-26T17:20:36.459Z,82.98
2022-11-26T17:23:06.464Z,83.25
2022-11-26T17:25:36.245Z,83.26
2022-11-26T17:28:13.424Z,83.00
2022-11-26T17:30:45.000Z,82.82
2022-11-26T17:33:14.743Z,82.92
2022-11-26T17:35:44.538Z,82.92
2022-11-26T17:38:17.183Z,82.45
2022-11-26T17:40:47.641Z,83.41
2022-11-26T17:43:17.444Z,83.21
2022-11-26T17:45:47.542Z,83.68
2022-11-26T17:48:16.993Z,83.26
2022-11-26T17:50:46.808Z,83.19
2022-11-26T17:53:16.550Z,83.03
2022-11-26T17:55:46.352Z,83.05
2022-11-26T17:58:16.073Z,83.36
2022-11-26T18:00:45.845Z,83.16
2022-11-26T18:03:15.666Z,82.87
2022-11-26T18:05:45.741Z,82.60
2022-11-26T18:08:15.531Z,82.98
2022-11-26T18:10:45.232Z,84.04
2022-11-26T18:13:14.968Z,83.64
2022-11-26T18:15:44.981Z,83.35
2022-11-26T18:18:14.778Z,84.41
2022-11-26T18:20:44.685Z,83.76
2022-11-26T18:23:14.155Z,83.81
2022-11-26T18:25:45.597Z,84.76
2022-11-26T18:28:18.703Z,84.41
2022-11-26T18:30:48.509Z,83.98
2022-11-26T18:33:18.231Z,83.76
2022-11-26T18:35:49.465Z,84.10
2022-11-26T18:38:19.174Z,84.37
2022-11-26T18:40:50.427Z,84.62
2022-11-26T18:43:20.170Z,84.87
2022-11-26T18:45:49.928Z,85.33
2022-11-26T18:48:19.652Z,85.02
2022-11-26T18:50:58.378Z,85.10
2022-11-26T18:53:28.455Z,85.39
2022-11-26T18:55:59.015Z,85.07
2022-11-26T18:58:29.131Z,85.51
2022-11-26T19:00:59.288Z,85.42
2022-11-26T19:03:29.394Z,85.60
2022-11-26T19:05:59.210Z,85.04
2022-11-26T19:08:28.726Z,85.04
2022-11-26T19:10:58.538Z,85.13
2022-11-26T19:13:28.265Z,84.80
2022-11-26T19:15:58.616Z,85.40
2022-11-26T19:18:28.322Z,85.27
2022-11-26T19:20:58.220Z,84.64
2022-11-26T19:23:28.546Z,84.82
2022-11-26T19:25:58.473Z,85.23
2022-11-26T19:28:28.779Z,85.86
2022-11-26T19:31:01.249Z,85.34
2022-11-26T19:33:31.266Z,85.44
2022-11-26T19:36:06.106Z,85.44
2022-11-26T19:38:36.384Z,85.40
2022-11-26T19:41:07.032Z,85.70
2022-11-26T19:43:40.153Z,85.07
2022-11-26T19:46:14.953Z,85.28
2022-11-26T19:48:46.538Z,85.37
2022-11-26T19:51:17.911Z,85.49
2022-11-26T19:53:52.546Z,85.79
2022-11-26T19:56:24.975Z,85.75
2022-11-26T19:58:56.790Z,85.95
2022-11-26T20:01:29.458Z,86.15
2022-11-26T20:04:01.282Z,85.68
2022-11-26T20:06:32.641Z,85.32
2022-11-26T20:09:04.072Z,85.75
2022-11-26T20:11:36.095Z,85.16
2022-11-26T20:14:11.908Z,84.72
2022-11-26T20:16:43.546Z,85.02
2022-11-26T20:19:14.041Z,84.72
2022-11-26T20:21:43.790Z,84.67
2022-11-26T20:24:18.291Z,84.91
2022-11-26T20:26:49.676Z,84.74
2022-11-26T20:29:19.968Z,84.50
2022-11-26T20:31:51.762Z,83.72
2022-11-26T20:34:24.363Z,84.46
2022-11-26T20:36:54.180Z,83.89
2022-11-26T20:39:24.665Z,83.75
2022-11-26T20:41:54.431Z,83.75
2022-11-26T20:44:25.900Z,84.37
2022-11-26T20:46:56.950Z,84.15
2022-11-26T20:49:32.216Z,84.19
2022-11-26T20:51:58.416Z,84.18
2022-11-26T20:54:28.164Z,84.18
2022-11-26T20:56:58.108Z,84.12
2022-11-26T20:59:27.584Z,84.12
2022-11-26T21:01:57.481Z,84.51
2022-11-26T21:04:27.090Z,84.25
2022-11-26T21:06:56.856Z,84.96
2022-11-26T21:09:26.352Z,85.03
2022-11-26T21:11:56.272Z,84.09
2022-11-26T21:14:25.818Z,83.63
2022-11-26T21:16:55.592Z,83.43
2022-11-26T21:19:25.364Z,83.63
2022-11-26T21:21:55.098Z,83.63
2022-11-26T21:24:25.132Z,83.86
2022-11-26T21:26:54.600Z,83.78
2022-11-26T21:29:24.320Z,83.72
2022-11-26T21:31:54.479Z,83.32
2022-11-26T21:34:24.018Z,83.40
2022-11-26T21:36:53.779Z,83.49
2022-11-26T21:39:23.597Z,84.16
2022-11-26T21:41:53.333Z,83.32
2022-11-26T21:44:22.771Z,82.85
2022-11-26T21:46:52.528Z,83.26
2022-11-26T21:49:22.331Z,83.46
2022-11-26T21:51:51.802Z,83.35
2022-11-26T21:54:21.379Z,82.99
2022-11-26T21:56:51.172Z,82.87
2022-11-26T21:59:21.053Z,83.23
2022-11-26T22:01:51.250Z,83.25
2022-11-26T22:04:21.705Z,83.22
2022-11-26T22:06:51.707Z,82.63
2022-11-26T22:09:21.647Z,83.14
2022-11-26T22:11:51.153Z,83.14
2022-11-26T22:14:20.573Z,82.58
2022-11-26T22:16:53.978Z,83.29
2022-11-26T22:19:23.786Z,82.84
2022-11-26T22:21:53.602Z,82.45
2022-11-26T22:24:23.148Z,82.99
2022-11-26T22:26:53.941Z,83.19
2022-11-26T22:29:23.903Z,83.46
2022-11-26T22:31:53.694Z,83.72
2022-11-26T22:34:24.576Z,83.81
2022-11-26T22:36:54.392Z,83.56
2022-11-26T22:39:24.125Z,83.38
2022-11-26T22:41:53.854Z,83.59
2022-11-26T22:44:23.383Z,83.13
2022-11-26T22:46:53.102Z,83.83
2022-11-26T22:49:22.838Z,84.08
2022-11-26T22:51:52.582Z,83.95
2022-11-26T22:54:23.410Z,84.09
2022-11-26T22:56:53.085Z,84.13
2022-11-26T22:59:22.850Z,84.28
2022-11-26T23:01:55.886Z,84.43
2022-11-26T23:04:25.540Z,84.56
2022-11-26T23:06:55.269Z,84.55
2022-11-26T23:09:25.066Z,84.54
2022-11-26T23:11:54.557Z,84.49
2022-11-26T23:14:24.007Z,84.66
2022-11-26T23:16:53.766Z,84.24
2022-11-26T23:19:24.076Z,84.29
2022-11-26T23:21:53.853Z,84.94
2022-11-26T23:24:23.280Z,85.02
2022-11-26T23:26:53.022Z,85.15
2022-11-26T23:29:23.016Z,85.22
2022-11-26T23:31:52.951Z,84.86
2022-11-26T23:34:22.355Z,84.86
2022-11-26T23:36:52.079Z,85.46
2022-11-26T23:39:21.831Z,85.53
2022-11-26T23:41:51.289Z,85.47
2022-11-26T23:44:21.075Z,85.25
2022-11-26T23:46:50.853Z,85.25
2022-11-26T23:49:22.815Z,85.30
2022-11-26T23:51:52.607Z,85.57
2022-11-26T23:54:22.453Z,86.05
2022-11-26T23:56:52.523Z,85.70
2022-11-26T23:59:22.261Z,86.22
